Aérodrome :
LOGIN :

S'inscrire | Disclaimer

   EN    FR    IT 

 










Légende :    VFR   VFR Marginal   IFR   IFR Intensif   IFR Très Intensif
Visi : 
Plafond : 
>= 8 km
>= 3000ft
5 à 8 km
1000 à 3000 ft
1500m à 5 km
500 à 1000 ft
800 à 1500m
200 à 500 ft
< 800m
< 200 ft
Symboles :   Orages  Brouillard  Fortes neiges  Fortes précipitations  Vent > 20 kt
SIGMETs :   Divers  Orages  Givrage  Turbulence  Onde Orograph.  Cendres Volcan.






- Altitude de l'aérodrome : 147 ft
- Code IATA : DUS


EDDL - Düsseldorf Int.

DERNIER METAR :
  • 150650Z 24016KT 9999 -SHRA FEW020 FEW028CB SCT037 08/05 Q0995 NOSIG

METARs EXPIRÉS :
  • 150620Z 26024G34KT 9999 -SHRA FEW020 SCT028CB BKN042 08/05 Q0995 RESHRA BECMG 25015G25KT
  • 150550Z 23023G34KT 9999 SHRA FEW016 SCT025CB BKN036 11/07 Q0993 BECMG 25015G25KT NSW
  • 150520Z 19014KT 9999 FEW022 BKN033 09/07 Q0992 TEMPO 20020G35KT SHRA
  • 150450Z 18015KT 9999 -RA SCT016 BKN025 08/07 Q0992 TEMPO 20015G25KT SHRA
  • 150420Z 17013KT 9999 -RA FEW012 BKN024 08/06 Q0992 TEMPO 20015G25KT SHRA

TAF TAF EDDL
Valide du 15 à 06h jusqu'au 16 à 12h UTC


150500Z 1506/1612 17013KT 9999 BKN020
BECMG 1506/1508 23015G25KT
TEMPO 1506/1508 25020G35KT 4000 SHRA BKN014TCU
BECMG 1513/1517 23012KT
BECMG 1518/1521 16010KT
PROB30
TEMPO 1610/1612 RA



MET'MAP, la Météo Aéronautique d'un coup d'oeil ! - Copyright ORBIFLY Décembre 2007 - Disclaimer

ORBIFLY MET'MAP TEAM :

Programmation & Développement : Alexandra Zaïnal
Sur une idée originale de : Baudouin d'Aumeries
Assistance à la programmation : Marc-Olivier Méhu
Soutien technique & logistique : Manuel Goepfert

Contact : metmap@orbifly.com




SOURCES & CREDITS :

   NOAA